Time;durP1;ratioP1;P1;durP2;ratioP2;P2;SDS_P1;SDS_P2;PMS_P1;PMS_P2;Temp;Humidity;BMP_temperature;BMP_pressure;BME280_temperature;BME280_humidity;BME280_pressure;Samples;Min_cycle;Max_cycle;Signal;HPM_P1;HPM_P2
2023/07/08 00:00:28;;;;;;;2.13;1.83;;;;;;;;;;2091054;28;20041;-65
2023/07/08 00:01:47;;;;;;;4.47;1.90;;;;;;;;;;2086647;28;20060;-65
2023/07/08 00:03:06;;;;;;;3.63;1.88;;;;;;;;;;2087695;28;20044;-65
2023/07/08 00:04:26;;;;;;;2.22;2.03;;;;;;;;;;2086198;28;20513;-65
2023/07/08 00:05:46;;;;;;;1.73;1.63;;;;;;;;;;2087985;28;20041;-66
2023/07/08 00:07:10;;;;;;;5.35;1.90;;;;;;;;;;2079866;28;20413;-65
2023/07/08 00:08:29;;;;;;;3.67;2.00;;;;;;;;;;2086652;28;20029;-67
2023/07/08 00:09:48;;;;;;;3.00;1.90;;;;;;;;;;2084915;28;20036;-66
2023/07/08 00:11:11;;;;;;;7.13;2.00;;;;;;;;;;2089074;28;20036;-65
2023/07/08 00:12:30;;;;;;;2.22;1.80;;;;;;;;;;2087232;28;20112;-66
2023/07/08 00:13:49;;;;;;;2.92;1.67;;;;;;;;;;2088854;28;20025;-65
2023/07/08 00:15:08;;;;;;;5.50;1.67;;;;;;;;;;2082242;28;20402;-66
2023/07/08 00:16:28;;;;;;;4.82;2.20;;;;;;;;;;2083224;28;21393;-64
2023/07/08 00:17:47;;;;;;;2.72;2.00;;;;;;;;;;2086320;28;20037;-66
2023/07/08 00:19:08;;;;;;;2.45;2.13;;;;;;;;;;2077399;28;20045;-66
2023/07/08 00:20:41;;;;;;;3.45;2.00;;;;;;;;;;2084227;28;20159;-66
2023/07/08 00:22:01;;;;;;;3.55;2.08;;;;;;;;;;2087528;28;20037;-66
2023/07/08 00:23:22;;;;;;;5.68;1.80;;;;;;;;;;2084140;28;20616;-66
2023/07/08 00:24:42;;;;;;;1.70;1.60;;;;;;;;;;2086805;28;20040;-66
2023/07/08 00:26:02;;;;;;;2.08;1.85;;;;;;;;;;2089250;28;20107;-68
2023/07/08 00:27:21;;;;;;;3.00;1.80;;;;;;;;;;2088796;28;20029;-66
2023/07/08 00:28:40;;;;;;;4.63;1.88;;;;;;;;;;2090390;28;20029;-65
2023/07/08 00:30:00;;;;;;;3.63;1.95;;;;;;;;;;2087181;28;20490;-66
2023/07/08 00:31:23;;;;;;;1.80;1.70;;;;;;;;;;2088670;28;20082;-66
2023/07/08 00:32:42;;;;;;;2.47;1.83;;;;;;;;;;2083359;28;20521;-68
2023/07/08 00:34:03;;;;;;;3.00;2.05;;;;;;;;;;2088016;28;20032;-66
2023/07/08 00:35:22;;;;;;;3.42;2.08;;;;;;;;;;2086139;28;20021;-66
2023/07/08 00:36:41;;;;;;;3.35;2.20;;;;;;;;;;2085905;28;20661;-66
2023/07/08 00:38:12;;;;;;;2.90;2.08;;;;;;;;;;2088653;28;20017;-66
2023/07/08 00:39:31;;;;;;;8.68;1.75;;;;;;;;;;2086610;28;20493;-66
2023/07/08 00:40:52;;;;;;;7.18;2.20;;;;;;;;;;2089166;28;20044;-66
2023/07/08 00:42:14;;;;;;;3.28;2.00;;;;;;;;;;2087200;28;20691;-66
2023/07/08 00:43:33;;;;;;;3.50;2.05;;;;;;;;;;2087936;28;20140;-66
2023/07/08 00:44:52;;;;;;;4.13;1.77;;;;;;;;;;2088134;28;20495;-67
2023/07/08 00:46:18;;;;;;;2.28;2.08;;;;;;;;;;2090808;28;20112;-66
2023/07/08 00:47:37;;;;;;;3.40;2.40;;;;;;;;;;2087751;28;20037;-66
2023/07/08 00:49:14;;;;;;;2.20;2.00;;;;;;;;;;2088071;28;20497;-66
2023/07/08 00:50:33;;;;;;;4.88;2.13;;;;;;;;;;2081325;28;20490;-66
2023/07/08 00:51:52;;;;;;;5.60;2.10;;;;;;;;;;2085750;28;20033;-66
2023/07/08 00:53:24;;;;;;;4.50;2.13;;;;;;;;;;2087011;28;20112;-66
2023/07/08 00:54:43;;;;;;;6.47;2.47;;;;;;;;;;2088788;28;20029;-66
2023/07/08 00:56:21;;;;;;;2.40;2.20;;;;;;;;;;2090870;28;20400;-66
2023/07/08 00:57:42;;;;;;;4.28;1.90;;;;;;;;;;2088728;28;20137;-64
2023/07/08 00:59:03;;;;;;;2.53;1.92;;;;;;;;;;2088611;28;20119;-64
2023/07/08 01:00:22;;;;;;;2.90;2.15;;;;;;;;;;2092018;28;20262;-64
2023/07/08 01:01:42;;;;;;;2.53;2.20;;;;;;;;;;2095756;28;20036;-64
2023/07/08 01:03:01;;;;;;;3.75;2.58;;;;;;;;;;2094600;28;20702;-64
2023/07/08 01:04:20;;;;;;;3.67;2.03;;;;;;;;;;2099083;28;20079;-63
2023/07/08 01:05:40;;;;;;;4.28;2.03;;;;;;;;;;2096103;28;20496;-64
2023/07/08 01:06:59;;;;;;;2.75;2.15;;;;;;;;;;2095985;28;20036;-64
2023/07/08 01:08:19;;;;;;;2.33;2.13;;;;;;;;;;2097793;28;20029;-64
2023/07/08 01:09:42;;;;;;;5.57;2.10;;;;;;;;;;2094898;28;20037;-65
2023/07/08 01:11:02;;;;;;;2.30;1.98;;;;;;;;;;2088709;28;20037;-65
2023/07/08 01:12:23;;;;;;;2.83;2.38;;;;;;;;;;2096693;28;20024;-65
2023/07/08 01:13:43;;;;;;;4.85;2.30;;;;;;;;;;2097877;28;20032;-65
2023/07/08 01:15:04;;;;;;;2.30;2.10;;;;;;;;;;2085535;28;20049;-65
2023/07/08 01:16:23;;;;;;;5.55;2.72;;;;;;;;;;2095991;28;20036;-67
2023/07/08 01:17:43;;;;;;;4.20;3.00;;;;;;;;;;2083193;28;20045;-65
2023/07/08 01:19:04;;;;;;;5.05;2.63;;;;;;;;;;2093000;28;20036;-65
2023/07/08 01:20:23;;;;;;;3.33;2.30;;;;;;;;;;2099165;28;20024;-64
2023/07/08 01:21:54;;;;;;;6.57;2.60;;;;;;;;;;2097627;28;20032;-65
2023/07/08 01:23:13;;;;;;;3.65;2.60;;;;;;;;;;2093547;28;20041;-65
2023/07/08 01:24:34;;;;;;;3.40;2.60;;;;;;;;;;2098257;28;20025;-65
2023/07/08 01:25:53;;;;;;;2.67;2.45;;;;;;;;;;2097810;28;21332;-65
2023/07/08 01:27:13;;;;;;;2.95;2.40;;;;;;;;;;2097868;28;20063;-64
2023/07/08 01:28:32;;;;;;;13.70;3.47;;;;;;;;;;2099369;28;20048;-65
2023/07/08 01:29:51;;;;;;;9.55;2.45;;;;;;;;;;2099733;28;20481;-65
2023/07/08 01:31:11;;;;;;;4.88;2.50;;;;;;;;;;2096201;28;20049;-65
2023/07/08 01:32:31;;;;;;;11.57;3.03;;;;;;;;;;2098328;28;20382;-65
2023/07/08 01:33:51;;;;;;;4.20;2.45;;;;;;;;;;2096679;28;20393;-65
2023/07/08 01:35:11;;;;;;;2.60;2.40;;;;;;;;;;2097633;28;20048;-65
2023/07/08 01:36:34;;;;;;;2.70;2.50;;;;;;;;;;2101415;28;20067;-65
2023/07/08 01:37:54;;;;;;;4.22;2.45;;;;;;;;;;2093231;28;20127;-65
2023/07/08 01:39:15;;;;;;;3.13;2.83;;;;;;;;;;2094737;28;20040;-65
2023/07/08 01:40:36;;;;;;;3.83;2.90;;;;;;;;;;2095184;28;20032;-64
2023/07/08 01:41:55;;;;;;;2.63;2.42;;;;;;;;;;2095853;28;20083;-64
2023/07/08 01:43:14;;;;;;;5.63;2.58;;;;;;;;;;2088477;28;20041;-64
2023/07/08 01:44:35;;;;;;;3.75;2.70;;;;;;;;;;2092931;28;20032;-64
2023/07/08 01:45:54;;;;;;;3.17;2.70;;;;;;;;;;2093962;28;20048;-65
2023/07/08 01:47:16;;;;;;;3.90;3.05;;;;;;;;;;2095994;28;20105;-64
2023/07/08 01:48:37;;;;;;;2.83;2.45;;;;;;;;;;2096906;28;20024;-64
2023/07/08 01:49:55;;;;;;;7.40;3.35;;;;;;;;;;2098328;28;20032;-64
2023/07/08 01:51:14;;;;;;;3.67;2.83;;;;;;;;;;2096454;28;20112;-64
2023/07/08 01:52:33;;;;;;;4.35;2.92;;;;;;;;;;2098995;28;20115;-65
2023/07/08 01:53:52;;;;;;;6.18;2.88;;;;;;;;;;2098571;28;20115;-64
2023/07/08 01:55:11;;;;;;;5.82;2.75;;;;;;;;;;2093458;28;20037;-66
2023/07/08 01:56:30;;;;;;;5.35;2.65;;;;;;;;;;2095969;28;20385;-64
2023/07/08 01:57:53;;;;;;;2.75;2.53;;;;;;;;;;2084278;28;20393;-64
2023/07/08 01:59:11;;;;;;;2.70;2.50;;;;;;;;;;2092926;28;20040;-64
2023/07/08 02:00:30;;;;;;;2.22;2.08;;;;;;;;;;2089546;28;20045;-65
2023/07/08 02:01:54;;;;;;;4.28;3.00;;;;;;;;;;2087578;28;20037;-64
2023/07/08 02:03:13;;;;;;;3.65;2.33;;;;;;;;;;2088528;28;20036;-64
2023/07/08 02:04:32;;;;;;;3.50;2.78;;;;;;;;;;2090245;28;20040;-64
2023/07/08 02:05:51;;;;;;;5.00;2.85;;;;;;;;;;2079444;28;20486;-65
2023/07/08 02:07:10;;;;;;;3.38;2.95;;;;;;;;;;2085676;28;20041;-64
2023/07/08 02:08:29;;;;;;;3.03;2.75;;;;;;;;;;2089024;28;20101;-65
2023/07/08 02:09:48;;;;;;;9.77;2.97;;;;;;;;;;2087533;28;20026;-64
2023/07/08 02:11:06;;;;;;;3.20;2.90;;;;;;;;;;2087115;28;20041;-65
2023/07/08 02:12:25;;;;;;;5.00;3.45;;;;;;;;;;2090024;28;20041;-64
2023/07/08 02:13:44;;;;;;;3.80;2.70;;;;;;;;;;2088549;28;20565;-65
2023/07/08 02:15:05;;;;;;;7.72;2.67;;;;;;;;;;2087713;28;20036;-65
2023/07/08 02:16:24;;;;;;;5.65;3.00;;;;;;;;;;2089805;28;20028;-65
2023/07/08 02:17:43;;;;;;;4.50;3.17;;;;;;;;;;2088185;28;20063;-65
2023/07/08 02:19:02;;;;;;;3.85;2.78;;;;;;;;;;2087004;28;20132;-65
2023/07/08 02:20:21;;;;;;;4.00;2.92;;;;;;;;;;2089353;28;20566;-66
2023/07/08 02:21:40;;;;;;;6.40;3.10;;;;;;;;;;2088194;28;20123;-65
2023/07/08 02:22:59;;;;;;;7.00;3.20;;;;;;;;;;2088158;28;20037;-65
2023/07/08 02:24:18;;;;;;;4.30;2.70;;;;;;;;;;2090830;28;20054;-66
2023/07/08 02:25:37;;;;;;;3.20;2.67;;;;;;;;;;2087900;28;20037;-65
2023/07/08 02:26:57;;;;;;;4.65;2.70;;;;;;;;;;2087071;28;21177;-65
2023/07/08 02:28:16;;;;;;;2.97;2.65;;;;;;;;;;2086624;28;20559;-65
2023/07/08 02:29:37;;;;;;;5.28;2.80;;;;;;;;;;2088635;28;20040;-65
2023/07/08 02:31:01;;;;;;;4.82;2.58;;;;;;;;;;2087778;28;20576;-65
2023/07/08 02:32:19;;;;;;;3.60;2.80;;;;;;;;;;2090031;28;20041;-65
2023/07/08 02:33:39;;;;;;;2.90;2.70;;;;;;;;;;2087506;28;20060;-64
2023/07/08 02:34:57;;;;;;;3.60;3.00;;;;;;;;;;2089280;28;20041;-64
2023/07/08 02:36:17;;;;;;;3.42;2.85;;;;;;;;;;2090687;28;20036;-65
2023/07/08 02:37:36;;;;;;;6.35;3.10;;;;;;;;;;2087729;28;20024;-65
2023/07/08 02:38:55;;;;;;;6.97;2.33;;;;;;;;;;2085194;28;20490;-65
2023/07/08 02:40:14;;;;;;;3.20;3.00;;;;;;;;;;2086266;28;20037;-64
2023/07/08 02:41:33;;;;;;;4.07;3.28;;;;;;;;;;2087857;28;20045;-65
2023/07/08 02:42:52;;;;;;;5.95;2.78;;;;;;;;;;2090097;28;20037;-64
2023/07/08 02:44:11;;;;;;;3.40;3.10;;;;;;;;;;2077383;28;20049;-64
2023/07/08 02:45:30;;;;;;;5.68;2.92;;;;;;;;;;2081214;28;20041;-65
2023/07/08 02:46:49;;;;;;;3.40;2.85;;;;;;;;;;2090441;28;20033;-64
2023/07/08 02:48:08;;;;;;;4.60;3.75;;;;;;;;;;2080060;28;20069;-64
2023/07/08 02:49:27;;;;;;;5.47;3.15;;;;;;;;;;2085050;28;20056;-65
2023/07/08 02:50:46;;;;;;;3.58;3.35;;;;;;;;;;2089559;28;20025;-64
2023/07/08 02:52:06;;;;;;;5.50;3.35;;;;;;;;;;2090758;28;20025;-65
2023/07/08 02:53:25;;;;;;;3.70;3.40;;;;;;;;;;2086952;28;20037;-65
2023/07/08 02:54:44;;;;;;;3.90;3.53;;;;;;;;;;2078404;28;20033;-64
2023/07/08 02:56:03;;;;;;;3.40;3.05;;;;;;;;;;2085868;28;20077;-64
2023/07/08 02:57:22;;;;;;;3.90;3.10;;;;;;;;;;2088503;28;20036;-64
2023/07/08 02:58:41;;;;;;;5.53;3.10;;;;;;;;;;2086411;28;20072;-64
2023/07/08 02:59:59;;;;;;;4.10;3.55;;;;;;;;;;2086759;28;20040;-64
2023/07/08 03:01:18;;;;;;;11.50;3.40;;;;;;;;;;2087995;28;20041;-65
2023/07/08 03:02:37;;;;;;;4.05;3.33;;;;;;;;;;2090944;28;20509;-64
2023/07/08 03:04:00;;;;;;;5.30;3.90;;;;;;;;;;2090142;28;20111;-65
2023/07/08 03:05:19;;;;;;;4.32;3.20;;;;;;;;;;2086333;28;20135;-65
2023/07/08 03:06:38;;;;;;;3.80;3.50;;;;;;;;;;2079726;28;20041;-65
2023/07/08 03:07:56;;;;;;;5.60;3.08;;;;;;;;;;2085333;28;20083;-68
2023/07/08 03:09:17;;;;;;;4.28;3.20;;;;;;;;;;2089837;28;20517;-65
2023/07/08 03:10:36;;;;;;;3.53;3.22;;;;;;;;;;2087805;28;20037;-65
2023/07/08 03:11:55;;;;;;;4.82;3.30;;;;;;;;;;2086393;28;20454;-65
2023/07/08 03:13:14;;;;;;;2.80;2.60;;;;;;;;;;2079859;28;20041;-65
2023/07/08 03:14:33;;;;;;;5.50;3.17;;;;;;;;;;2084358;28;20441;-65
2023/07/08 03:15:52;;;;;;;3.70;3.40;;;;;;;;;;2085776;28;20131;-65
2023/07/08 03:17:11;;;;;;;3.67;3.38;;;;;;;;;;2086745;28;20045;-65
2023/07/08 03:18:30;;;;;;;3.58;3.28;;;;;;;;;;2087707;28;20390;-66
2023/07/08 03:19:49;;;;;;;4.53;3.20;;;;;;;;;;2089459;28;20036;-65
2023/07/08 03:21:08;;;;;;;10.93;3.08;;;;;;;;;;2086252;28;20033;-66
2023/07/08 03:22:27;;;;;;;3.80;2.65;;;;;;;;;;2089764;28;20116;-65
2023/07/08 03:23:47;;;;;;;7.18;3.75;;;;;;;;;;2085721;28;20132;-65
2023/07/08 03:25:06;;;;;;;3.25;3.00;;;;;;;;;;2088553;28;20048;-65
2023/07/08 03:26:26;;;;;;;2.92;2.72;;;;;;;;;;2081083;28;20490;-67
2023/07/08 03:27:45;;;;;;;3.20;3.00;;;;;;;;;;2086199;28;20029;-66
2023/07/08 03:29:04;;;;;;;3.47;3.17;;;;;;;;;;2086512;28;20599;-66
2023/07/08 03:30:23;;;;;;;3.40;3.10;;;;;;;;;;2087699;28;20044;-65
2023/07/08 03:31:42;;;;;;;4.07;3.10;;;;;;;;;;2089109;28;20441;-69
2023/07/08 03:33:01;;;;;;;3.80;3.35;;;;;;;;;;2087071;28;20060;-65
2023/07/08 03:34:20;;;;;;;3.85;3.05;;;;;;;;;;2090833;28;20506;-66
2023/07/08 03:35:40;;;;;;;3.65;3.35;;;;;;;;;;2086584;28;20709;-65
2023/07/08 03:36:59;;;;;;;7.10;4.53;;;;;;;;;;2088454;28;20456;-65
2023/07/08 03:38:18;;;;;;;7.75;3.30;;;;;;;;;;2080603;28;20127;-65
2023/07/08 03:39:37;;;;;;;4.90;3.08;;;;;;;;;;2078662;28;20143;-66
2023/07/08 03:40:56;;;;;;;3.90;2.90;;;;;;;;;;2087407;28;20033;-66
2023/07/08 03:42:15;;;;;;;3.15;2.85;;;;;;;;;;2087192;28;20398;-65
2023/07/08 03:43:34;;;;;;;5.20;3.17;;;;;;;;;;2076447;28;20029;-65
2023/07/08 03:44:53;;;;;;;6.03;3.33;;;;;;;;;;2085241;28;20489;-66
2023/07/08 03:46:14;;;;;;;3.53;2.90;;;;;;;;;;2079349;28;20155;-65
2023/07/08 03:47:33;;;;;;;7.53;3.00;;;;;;;;;;2084173;28;20549;-66
2023/07/08 03:48:52;;;;;;;5.50;3.35;;;;;;;;;;2089146;28;20115;-65
2023/07/08 03:50:19;;;;;;;3.58;2.97;;;;;;;;;;2086986;28;20116;-65
2023/07/08 03:51:39;;;;;;;3.83;3.13;;;;;;;;;;2087550;28;20469;-66
2023/07/08 03:52:58;;;;;;;6.05;3.80;;;;;;;;;;2086642;28;20033;-66
2023/07/08 03:54:18;;;;;;;3.63;3.08;;;;;;;;;;2088713;28;20032;-66
2023/07/08 03:55:37;;;;;;;6.15;2.78;;;;;;;;;;2087252;28;20028;-66
2023/07/08 03:56:56;;;;;;;6.75;2.78;;;;;;;;;;2087831;28;20591;-65
2023/07/08 03:58:15;;;;;;;4.70;3.05;;;;;;;;;;2090020;28;20073;-65
2023/07/08 03:59:34;;;;;;;3.25;2.92;;;;;;;;;;2084734;28;20913;-65
2023/07/08 04:00:53;;;;;;;3.72;2.90;;;;;;;;;;2087721;28;20045;-65
2023/07/08 04:02:12;;;;;;;3.08;2.80;;;;;;;;;;2090226;28;20049;-65
2023/07/08 04:03:31;;;;;;;3.22;2.88;;;;;;;;;;2089227;28;20397;-66
2023/07/08 04:04:50;;;;;;;3.38;3.15;;;;;;;;;;2086967;28;20119;-65
2023/07/08 04:06:09;;;;;;;3.65;3.35;;;;;;;;;;2089614;28;20021;-65
2023/07/08 04:07:28;;;;;;;2.90;2.70;;;;;;;;;;2085656;28;20338;-66
2023/07/08 04:08:48;;;;;;;6.90;3.50;;;;;;;;;;2088420;28;20033;-65
2023/07/08 04:10:08;;;;;;;2.85;2.63;;;;;;;;;;2087143;28;20033;-66
2023/07/08 04:11:27;;;;;;;5.15;3.40;;;;;;;;;;2089029;28;20036;-66
2023/07/08 04:12:46;;;;;;;3.33;3.10;;;;;;;;;;2089929;28;20036;-65
2023/07/08 04:14:04;;;;;;;2.92;2.70;;;;;;;;;;2080306;28;20033;-66
2023/07/08 04:15:25;;;;;;;3.63;3.08;;;;;;;;;;2081898;28;20044;-65
2023/07/08 04:16:52;;;;;;;3.90;2.78;;;;;;;;;;2088612;28;20036;-65
2023/07/08 04:18:11;;;;;;;3.30;3.10;;;;;;;;;;2085073;28;20194;-66
2023/07/08 04:19:30;;;;;;;5.38;3.08;;;;;;;;;;2084149;28;20036;-65
2023/07/08 04:20:52;;;;;;;3.05;2.60;;;;;;;;;;2077531;28;20033;-65
2023/07/08 04:22:11;;;;;;;4.38;3.20;;;;;;;;;;2085766;28;20075;-65
2023/07/08 04:23:30;;;;;;;3.53;3.03;;;;;;;;;;2085083;28;20044;-65
2023/07/08 04:24:49;;;;;;;4.50;2.85;;;;;;;;;;2086022;28;20036;-65
2023/07/08 04:26:08;;;;;;;3.17;2.92;;;;;;;;;;2087627;28;20494;-65
2023/07/08 04:27:27;;;;;;;3.20;2.80;;;;;;;;;;2087804;28;20044;-65
2023/07/08 04:28:46;;;;;;;3.17;2.88;;;;;;;;;;2089116;28;20061;-65
2023/07/08 04:30:06;;;;;;;3.00;2.80;;;;;;;;;;2088017;28;20582;-65
2023/07/08 04:31:25;;;;;;;5.95;2.72;;;;;;;;;;2088774;28;20029;-66
2023/07/08 04:32:44;;;;;;;4.22;2.67;;;;;;;;;;2081066;28;20506;-65
2023/07/08 04:34:03;;;;;;;3.35;2.60;;;;;;;;;;2086310;28;20029;-65
2023/07/08 04:35:22;;;;;;;2.67;2.45;;;;;;;;;;2088352;28;20037;-65
2023/07/08 04:36:41;;;;;;;3.95;3.17;;;;;;;;;;2089536;28;20490;-65
2023/07/08 04:38:01;;;;;;;5.25;3.30;;;;;;;;;;2088207;28;20044;-64
2023/07/08 04:39:19;;;;;;;3.15;2.75;;;;;;;;;;2087221;28;20501;-65
2023/07/08 04:40:39;;;;;;;4.03;2.45;;;;;;;;;;2086497;28;20037;-65
2023/07/08 04:41:58;;;;;;;3.20;2.83;;;;;;;;;;2085861;28;20592;-65
2023/07/08 04:43:18;;;;;;;3.20;2.90;;;;;;;;;;2076352;28;21620;-65
2023/07/08 04:44:37;;;;;;;2.88;2.70;;;;;;;;;;2082419;28;20036;-65
2023/07/08 04:45:56;;;;;;;5.50;2.95;;;;;;;;;;2083539;28;20033;-65
2023/07/08 04:47:15;;;;;;;2.92;2.72;;;;;;;;;;2086110;28;20071;-65
2023/07/08 04:48:34;;;;;;;3.40;3.00;;;;;;;;;;2088663;28;20033;-65
2023/07/08 04:49:53;;;;;;;3.67;3.28;;;;;;;;;;2079266;28;20422;-65
2023/07/08 04:51:12;;;;;;;3.50;3.22;;;;;;;;;;2083508;28;20037;-65
2023/07/08 04:52:31;;;;;;;3.20;2.90;;;;;;;;;;2090252;28;20033;-64
2023/07/08 04:53:50;;;;;;;3.92;3.00;;;;;;;;;;2089061;28;20489;-64
2023/07/08 04:55:10;;;;;;;4.45;2.97;;;;;;;;;;2087000;28;20555;-65
2023/07/08 04:56:35;;;;;;;3.28;2.97;;;;;;;;;;2083779;28;20482;-65
2023/07/08 04:57:55;;;;;;;6.97;3.42;;;;;;;;;;2090261;28;20044;-65
2023/07/08 04:59:15;;;;;;;4.57;2.67;;;;;;;;;;2088886;28;20040;-65
2023/07/08 05:00:34;;;;;;;3.85;3.53;;;;;;;;;;2085092;28;20057;-65
2023/07/08 05:01:53;;;;;;;4.25;2.85;;;;;;;;;;2087973;28;20036;-65
2023/07/08 05:03:12;;;;;;;4.90;3.33;;;;;;;;;;2087801;28;20319;-65
2023/07/08 05:04:31;;;;;;;4.63;3.13;;;;;;;;;;2088486;28;20045;-65
2023/07/08 05:05:50;;;;;;;3.25;2.95;;;;;;;;;;2088253;28;20029;-65
2023/07/08 05:07:09;;;;;;;3.42;3.10;;;;;;;;;;2082670;28;20502;-65
2023/07/08 05:08:28;;;;;;;3.22;3.00;;;;;;;;;;2088780;28;20032;-65
2023/07/08 05:09:47;;;;;;;5.00;3.10;;;;;;;;;;2089061;28;20033;-65
2023/07/08 05:11:06;;;;;;;3.60;3.25;;;;;;;;;;2093190;28;20037;-65
2023/07/08 05:12:25;;;;;;;3.88;3.58;;;;;;;;;;2090692;28;20021;-66
2023/07/08 05:13:44;;;;;;;4.85;3.20;;;;;;;;;;2092181;28;20021;-66
2023/07/08 05:15:03;;;;;;;4.45;3.47;;;;;;;;;;2089618;28;20025;-65
2023/07/08 05:16:22;;;;;;;5.00;3.00;;;;;;;;;;2089328;28;20044;-65
2023/07/08 05:17:42;;;;;;;3.33;3.03;;;;;;;;;;2083228;28;20029;-67
2023/07/08 05:19:01;;;;;;;5.57;3.33;;;;;;;;;;2085457;28;20025;-66
2023/07/08 05:20:20;;;;;;;5.97;2.70;;;;;;;;;;2081397;28;20037;-66
2023/07/08 05:21:39;;;;;;;5.15;3.35;;;;;;;;;;2082367;28;20030;-66
2023/07/08 05:22:58;;;;;;;4.70;3.03;;;;;;;;;;2088217;28;20025;-66
2023/07/08 05:24:17;;;;;;;10.18;3.63;;;;;;;;;;2090560;28;20493;-66
2023/07/08 05:25:36;;;;;;;3.15;2.95;;;;;;;;;;2092136;28;20021;-67
2023/07/08 05:26:55;;;;;;;5.60;2.92;;;;;;;;;;2080650;28;20049;-66
2023/07/08 05:28:15;;;;;;;3.30;3.10;;;;;;;;;;2088310;28;20030;-66
2023/07/08 05:29:34;;;;;;;4.97;3.40;;;;;;;;;;2093517;28;20020;-66
2023/07/08 05:30:56;;;;;;;4.10;2.97;;;;;;;;;;2092532;28;20478;-67
2023/07/08 05:32:16;;;;;;;3.40;3.20;;;;;;;;;;2092936;28;20036;-68
2023/07/08 05:33:34;;;;;;;5.88;3.75;;;;;;;;;;2091617;28;20104;-66
2023/07/08 05:34:53;;;;;;;5.75;3.20;;;;;;;;;;2087246;28;20115;-66
2023/07/08 05:36:12;;;;;;;3.70;3.40;;;;;;;;;;2089437;28;20029;-66
2023/07/08 05:37:31;;;;;;;5.97;3.40;;;;;;;;;;2090890;28;20033;-67
2023/07/08 05:38:50;;;;;;;2.90;2.70;;;;;;;;;;2090901;28;20024;-66
2023/07/08 05:40:09;;;;;;;7.28;3.45;;;;;;;;;;2089550;28;20041;-66
2023/07/08 05:41:28;;;;;;;3.33;2.88;;;;;;;;;;2088816;28;20025;-66
2023/07/08 05:42:47;;;;;;;4.88;3.25;;;;;;;;;;2094040;28;20032;-66
2023/07/08 05:44:06;;;;;;;3.72;3.10;;;;;;;;;;2089937;28;20029;-67
2023/07/08 05:45:25;;;;;;;5.60;3.05;;;;;;;;;;2088984;28;20287;-66
2023/07/08 05:46:44;;;;;;;3.72;3.53;;;;;;;;;;2089265;28;20539;-66
2023/07/08 05:48:03;;;;;;;3.38;3.10;;;;;;;;;;2083418;28;20075;-65
2023/07/08 05:49:22;;;;;;;3.83;3.42;;;;;;;;;;2091511;28;20024;-65
2023/07/08 05:50:41;;;;;;;4.65;3.60;;;;;;;;;;2094185;28;20482;-66
2023/07/08 05:52:05;;;;;;;4.50;3.42;;;;;;;;;;2084988;28;20029;-66
2023/07/08 05:53:24;;;;;;;3.92;3.00;;;;;;;;;;2090752;28;20025;-65
2023/07/08 05:54:43;;;;;;;4.45;3.55;;;;;;;;;;2086821;28;20136;-66
2023/07/08 05:56:03;;;;;;;3.90;3.60;;;;;;;;;;2087996;28;20119;-66
2023/07/08 05:57:23;;;;;;;4.22;3.83;;;;;;;;;;2090123;28;20033;-66
2023/07/08 05:58:42;;;;;;;6.72;4.57;;;;;;;;;;2081818;28;20029;-66
2023/07/08 06:00:01;;;;;;;3.97;3.55;;;;;;;;;;2087561;28;20036;-67
2023/07/08 06:01:20;;;;;;;3.95;3.67;;;;;;;;;;2097149;28;20052;-66
2023/07/08 06:02:39;;;;;;;3.78;3.47;;;;;;;;;;2092140;28;20135;-67
2023/07/08 06:03:59;;;;;;;5.35;3.42;;;;;;;;;;2096616;28;20025;-66
2023/07/08 06:05:18;;;;;;;4.28;3.05;;;;;;;;;;2098891;28;20111;-66
2023/07/08 06:06:37;;;;;;;4.80;3.78;;;;;;;;;;2099087;28;20033;-67
2023/07/08 06:07:56;;;;;;;4.18;3.88;;;;;;;;;;2102204;28;20020;-66
2023/07/08 06:09:15;;;;;;;3.78;3.45;;;;;;;;;;2103139;28;20028;-66
2023/07/08 06:10:34;;;;;;;3.85;3.55;;;;;;;;;;2101084;28;20044;-66
2023/07/08 06:11:53;;;;;;;4.15;3.75;;;;;;;;;;2095753;28;20021;-68
2023/07/08 06:13:12;;;;;;;4.20;3.28;;;;;;;;;;2096403;28;20028;-66
2023/07/08 06:14:32;;;;;;;3.72;3.45;;;;;;;;;;2099517;28;20032;-66
2023/07/08 06:15:51;;;;;;;3.80;3.60;;;;;;;;;;2099608;28;20481;-66
2023/07/08 06:17:10;;;;;;;3.83;3.63;;;;;;;;;;2100466;28;20052;-67
2023/07/08 06:18:29;;;;;;;4.88;3.28;;;;;;;;;;2097775;28;20381;-65
2023/07/08 06:19:48;;;;;;;3.63;3.30;;;;;;;;;;2101919;28;20032;-66
2023/07/08 06:21:07;;;;;;;3.55;3.35;;;;;;;;;;2099176;28;20037;-65
2023/07/08 06:22:27;;;;;;;4.18;3.78;;;;;;;;;;2099332;28;20489;-66
2023/07/08 06:23:46;;;;;;;4.88;3.63;;;;;;;;;;2100703;28;20036;-66
2023/07/08 06:25:05;;;;;;;3.53;3.15;;;;;;;;;;2096333;28;20119;-66
2023/07/08 06:26:24;;;;;;;3.88;3.55;;;;;;;;;;2098640;28;20431;-66
2023/07/08 06:27:43;;;;;;;4.15;3.45;;;;;;;;;;2096684;28;20037;-67
2023/07/08 06:29:02;;;;;;;4.57;3.50;;;;;;;;;;2097500;28;20028;-66
2023/07/08 06:30:21;;;;;;;3.75;3.45;;;;;;;;;;2097066;28;20028;-67
2023/07/08 06:31:40;;;;;;;4.03;3.72;;;;;;;;;;2102356;28;20031;-66
2023/07/08 06:32:59;;;;;;;6.63;3.63;;;;;;;;;;2097427;28;20036;-66
2023/07/08 06:34:18;;;;;;;4.50;3.33;;;;;;;;;;2100375;28;20032;-66
2023/07/08 06:35:37;;;;;;;4.30;4.00;;;;;;;;;;2101769;28;20028;-66
2023/07/08 06:36:57;;;;;;;4.55;3.70;;;;;;;;;;2097221;28;20640;-66
2023/07/08 06:38:15;;;;;;;4.05;3.75;;;;;;;;;;2097715;28;20028;-66
2023/07/08 06:39:34;;;;;;;3.58;3.38;;;;;;;;;;2092747;28;20028;-66
2023/07/08 06:40:53;;;;;;;3.45;3.17;;;;;;;;;;2097492;28;20466;-66
2023/07/08 06:42:12;;;;;;;4.13;3.63;;;;;;;;;;2098106;28;20029;-66
2023/07/08 06:43:31;;;;;;;3.60;3.30;;;;;;;;;;2097699;28;20444;-65
2023/07/08 06:44:50;;;;;;;3.88;3.58;;;;;;;;;;2096067;28;20032;-65
2023/07/08 06:46:09;;;;;;;6.65;3.33;;;;;;;;;;2099166;28;20028;-66
2023/07/08 06:47:29;;;;;;;4.25;3.30;;;;;;;;;;2092403;28;20104;-67
2023/07/08 06:48:48;;;;;;;4.50;3.55;;;;;;;;;;2085720;28;20024;-67
2023/07/08 06:50:07;;;;;;;3.97;3.67;;;;;;;;;;2094835;28;20028;-67
2023/07/08 06:51:26;;;;;;;3.97;3.58;;;;;;;;;;2097581;28;20052;-66
2023/07/08 06:52:46;;;;;;;4.53;3.50;;;;;;;;;;2097160;28;20397;-66
2023/07/08 06:54:10;;;;;;;4.72;3.63;;;;;;;;;;2100600;28;20056;-66
2023/07/08 06:55:30;;;;;;;4.25;3.40;;;;;;;;;;2100785;28;20032;-67
2023/07/08 06:56:48;;;;;;;3.75;3.45;;;;;;;;;;2097483;28;20393;-68
2023/07/08 06:58:07;;;;;;;3.80;3.40;;;;;;;;;;2094742;28;20024;-67
2023/07/08 06:59:28;;;;;;;9.13;3.47;;;;;;;;;;2096474;28;20124;-69
2023/07/08 07:00:47;;;;;;;4.38;3.47;;;;;;;;;;2091578;28;20044;-66
2023/07/08 07:02:07;;;;;;;3.40;3.10;;;;;;;;;;2086883;28;20509;-66
2023/07/08 07:03:27;;;;;;;4.72;2.95;;;;;;;;;;2095968;28;20044;-66
2023/07/08 07:04:46;;;;;;;3.42;3.17;;;;;;;;;;2093328;28;21538;-66
2023/07/08 07:06:05;;;;;;;3.10;2.90;;;;;;;;;;2098861;28;20044;-67
2023/07/08 07:07:24;;;;;;;7.63;3.53;;;;;;;;;;2090362;28;20037;-66
2023/07/08 07:08:43;;;;;;;4.10;3.38;;;;;;;;;;2088037;28;20354;-67
2023/07/08 07:10:02;;;;;;;3.75;3.22;;;;;;;;;;2084839;28;20489;-67
2023/07/08 07:11:21;;;;;;;4.03;3.63;;;;;;;;;;2091120;28;20032;-67
2023/07/08 07:12:40;;;;;;;3.15;2.95;;;;;;;;;;2094849;28;20421;-66
2023/07/08 07:13:59;;;;;;;4.00;3.42;;;;;;;;;;2092313;28;20489;-66
2023/07/08 07:15:18;;;;;;;4.47;3.28;;;;;;;;;;2080722;28;20123;-65
2023/07/08 07:16:37;;;;;;;5.85;3.17;;;;;;;;;;2088644;28;20155;-66
2023/07/08 07:17:57;;;;;;;4.25;3.63;;;;;;;;;;2082854;28;20028;-65
2023/07/08 07:19:15;;;;;;;3.75;3.25;;;;;;;;;;2087684;28;20048;-67
2023/07/08 07:20:36;;;;;;;3.72;3.42;;;;;;;;;;2093186;28;20024;-66
2023/07/08 07:21:55;;;;;;;4.07;3.38;;;;;;;;;;2095665;28;20037;-66
2023/07/08 07:23:14;;;;;;;3.53;3.20;;;;;;;;;;2091184;28;20690;-66
2023/07/08 07:24:33;;;;;;;4.07;3.47;;;;;;;;;;2098850;28;20048;-66
2023/07/08 07:25:52;;;;;;;3.45;3.15;;;;;;;;;;2085325;28;20673;-65
2023/07/08 07:27:12;;;;;;;4.25;3.10;;;;;;;;;;2083356;28;20029;-66
2023/07/08 07:28:31;;;;;;;3.35;3.15;;;;;;;;;;2092147;28;20370;-67
2023/07/08 07:29:50;;;;;;;4.30;3.15;;;;;;;;;;2088648;28;20025;-67
2023/07/08 07:31:10;;;;;;;3.95;3.10;;;;;;;;;;2095769;28;20036;-66
2023/07/08 07:32:31;;;;;;;4.63;3.33;;;;;;;;;;2098223;28;20412;-67
2023/07/08 07:33:51;;;;;;;2.95;2.75;;;;;;;;;;2099085;28;20481;-66
2023/07/08 07:35:14;;;;;;;3.40;3.17;;;;;;;;;;2101069;28;20036;-65
2023/07/08 07:36:33;;;;;;;3.50;3.22;;;;;;;;;;2089198;28;20036;-66
2023/07/08 07:37:52;;;;;;;4.15;3.25;;;;;;;;;;2094331;28;20059;-66
2023/07/08 07:39:11;;;;;;;3.72;3.40;;;;;;;;;;2099453;28;20037;-66
2023/07/08 07:40:30;;;;;;;4.18;3.63;;;;;;;;;;2098871;28;20682;-66
2023/07/08 07:41:49;;;;;;;3.40;3.20;;;;;;;;;;2100041;28;20036;-67
2023/07/08 07:43:08;;;;;;;4.35;3.50;;;;;;;;;;2098758;28;20024;-67
2023/07/08 07:44:27;;;;;;;3.38;3.17;;;;;;;;;;2098415;28;20028;-66
2023/07/08 07:45:49;;;;;;;3.65;3.38;;;;;;;;;;2092115;28;20028;-66
2023/07/08 07:47:09;;;;;;;3.75;3.45;;;;;;;;;;2085694;28;20044;-65
2023/07/08 07:48:28;;;;;;;4.10;3.50;;;;;;;;;;2094854;28;20032;-66
2023/07/08 07:49:47;;;;;;;4.60;3.47;;;;;;;;;;2098023;28;20020;-66
2023/07/08 07:51:10;;;;;;;2.70;2.50;;;;;;;;;;2096415;28;20046;-65
2023/07/08 07:52:29;;;;;;;3.08;2.88;;;;;;;;;;2098094;28;20481;-66
2023/07/08 07:53:48;;;;;;;3.63;2.95;;;;;;;;;;2094328;28;20036;-65
2023/07/08 07:55:07;;;;;;;4.43;3.08;;;;;;;;;;2093682;28;20427;-65
2023/07/08 07:56:26;;;;;;;3.70;3.42;;;;;;;;;;2097499;28;20430;-66
2023/07/08 07:57:47;;;;;;;3.20;3.00;;;;;;;;;;2092484;28;20518;-66